createdAt,value
2018-12-19T00:01:20.529Z,29.70
2018-12-19T00:04:04.268Z,35.83
2018-12-19T00:06:47.599Z,30.48
2018-12-19T00:09:29.843Z,31.37
2018-12-19T00:12:11.600Z,32.88
2018-12-19T00:14:53.338Z,28.30
2018-12-19T00:17:36.505Z,28.07
2018-12-19T00:20:18.441Z,31.80
2018-12-19T00:22:59.736Z,32.33
2018-12-19T00:25:41.048Z,30.37
2018-12-19T00:28:25.405Z,30.45
2018-12-19T00:31:08.457Z,31.25
2018-12-19T00:33:52.733Z,32.50
2018-12-19T00:36:34.972Z,29.95
2018-12-19T00:39:16.322Z,26.77
2018-12-19T00:41:57.482Z,29.23
2018-12-19T00:44:39.292Z,31.30
2018-12-19T00:47:20.431Z,30.45
2018-12-19T00:50:02.582Z,33.23
2018-12-19T00:52:43.960Z,30.27
2018-12-19T00:55:25.139Z,30.52
2018-12-19T00:58:06.793Z,25.82
2018-12-19T01:00:48.624Z,29.90
2018-12-19T01:03:30.513Z,30.80
2018-12-19T01:06:13.701Z,26.52
2018-12-19T01:08:55.477Z,26.33
2018-12-19T01:11:37.468Z,28.67
2018-12-19T01:14:19.066Z,30.68
2018-12-19T01:17:00.845Z,22.80
2018-12-19T01:19:43.406Z,27.02
2018-12-19T01:22:24.985Z,24.57
2018-12-19T01:25:06.708Z,22.87
2018-12-19T01:27:49.482Z,24.67
2018-12-19T01:30:31.641Z,22.82
2018-12-19T01:33:12.819Z,20.35
2018-12-19T01:35:55.056Z,24.43
2018-12-19T01:38:36.328Z,19.92
2018-12-19T01:41:18.019Z,19.32
2018-12-19T01:43:59.382Z,20.90
2018-12-19T01:46:41.075Z,21.68
2018-12-19T01:49:22.451Z,19.57
2018-12-19T01:52:03.792Z,20.13
2018-12-19T01:54:45.188Z,20.20
2018-12-19T01:57:26.809Z,23.12
2018-12-19T02:00:10.239Z,23.83
2018-12-19T02:02:52.055Z,20.70
2018-12-19T02:05:33.483Z,22.30
2018-12-19T02:08:14.614Z,18.63
2018-12-19T02:10:55.895Z,20.63
2018-12-19T02:13:39.618Z,22.10
2018-12-19T02:16:21.306Z,20.40
2018-12-19T02:19:02.916Z,18.53
2018-12-19T02:21:44.996Z,17.93
2018-12-19T02:24:26.693Z,17.60
2018-12-19T02:27:07.970Z,21.82
2018-12-19T02:29:50.036Z,17.25
2018-12-19T02:32:31.755Z,19.97
2018-12-19T02:35:13.149Z,19.93
2018-12-19T02:37:54.335Z,18.87
2018-12-19T02:40:36.617Z,19.05
2018-12-19T02:43:18.179Z,19.47
2018-12-19T02:45:59.712Z,17.40
2018-12-19T02:48:41.075Z,17.43
2018-12-19T02:51:22.270Z,19.07
2018-12-19T02:54:04.576Z,17.23
2018-12-19T02:56:47.978Z,18.15
2018-12-19T02:59:30.113Z,18.20
2018-12-19T03:02:11.839Z,17.65
2018-12-19T03:04:53.593Z,17.65
2018-12-19T03:07:34.878Z,15.93
2018-12-19T03:10:16.843Z,16.48
2018-12-19T03:12:58.073Z,16.32
2018-12-19T03:15:39.609Z,17.63
2018-12-19T03:18:21.300Z,15.70
2018-12-19T03:21:02.664Z,15.65
2018-12-19T03:23:44.278Z,17.47
2018-12-19T03:26:25.419Z,17.30
2018-12-19T03:29:07.518Z,16.10
2018-12-19T03:31:49.880Z,16.03
2018-12-19T03:34:31.689Z,16.52
2018-12-19T03:37:13.450Z,17.80
2018-12-19T03:39:55.655Z,17.07
2018-12-19T03:42:36.965Z,14.83
2018-12-19T03:45:18.583Z,18.07
2018-12-19T03:47:59.983Z,15.32
2018-12-19T03:50:41.272Z,13.38
2018-12-19T03:53:22.488Z,16.63
2018-12-19T03:56:04.823Z,14.53
2018-12-19T03:58:47.085Z,15.85
2018-12-19T04:01:28.342Z,15.23
2018-12-19T04:04:10.641Z,14.73
2018-12-19T04:06:52.532Z,14.17
2018-12-19T04:09:34.942Z,13.73
2018-12-19T04:12:17.508Z,16.97
2018-12-19T04:14:58.926Z,16.27
2018-12-19T04:17:42.586Z,16.40
2018-12-19T04:20:24.780Z,13.80
2018-12-19T04:23:06.723Z,14.75
2018-12-19T04:25:47.977Z,14.73
2018-12-19T04:28:29.200Z,13.00
2018-12-19T04:31:11.407Z,16.37
2018-12-19T04:33:53.581Z,14.03
2018-12-19T04:36:35.588Z,16.50
2018-12-19T04:39:17.336Z,15.95
2018-12-19T04:41:59.133Z,16.40
2018-12-19T04:44:41.273Z,16.48
2018-12-19T04:47:22.923Z,15.73
2018-12-19T04:50:05.109Z,14.83
2018-12-19T04:52:47.016Z,15.40
2018-12-19T04:55:30.911Z,15.43
2018-12-19T04:58:12.645Z,13.72
2018-12-19T05:00:54.532Z,19.35
2018-12-19T05:03:36.224Z,15.72
2018-12-19T05:06:17.411Z,16.00
2018-12-19T05:08:58.588Z,15.30
2018-12-19T05:11:40.603Z,17.02
2018-12-19T05:14:22.970Z,17.42
2018-12-19T05:17:04.484Z,15.30
2018-12-19T05:19:47.076Z,16.48
2018-12-19T05:22:28.781Z,18.05
2018-12-19T05:25:13.584Z,19.92
2018-12-19T05:27:55.432Z,16.65
2018-12-19T05:30:37.376Z,19.67
2018-12-19T05:33:19.328Z,21.17
2018-12-19T05:36:01.241Z,20.45
2018-12-19T05:38:42.662Z,17.73
2018-12-19T05:41:24.266Z,16.97
2018-12-19T05:44:06.924Z,18.17
2018-12-19T05:46:49.007Z,21.23
2018-12-19T05:49:31.625Z,17.20
2018-12-19T05:52:13.339Z,18.45
2018-12-19T05:54:55.091Z,18.73
2018-12-19T05:57:37.282Z,18.90
2018-12-19T06:00:21.927Z,20.37
2018-12-19T06:03:06.476Z,17.67
2018-12-19T06:05:49.879Z,18.92
2018-12-19T06:08:31.574Z,16.62
2018-12-19T06:11:14.068Z,18.35
2018-12-19T06:13:55.393Z,19.87
2018-12-19T06:16:37.239Z,19.52
2018-12-19T06:19:19.499Z,19.02
2018-12-19T06:22:01.356Z,17.30
2018-12-19T06:24:42.909Z,19.55
2018-12-19T06:27:24.613Z,21.60
2018-12-19T06:30:07.479Z,16.27
2018-12-19T06:32:49.775Z,19.00
2018-12-19T06:35:31.957Z,18.15
2018-12-19T06:38:14.256Z,21.30
2018-12-19T06:40:55.921Z,19.37
2018-12-19T06:43:37.474Z,21.67
2018-12-19T06:46:19.503Z,18.70
2018-12-19T06:49:00.891Z,20.48
2018-12-19T06:51:42.231Z,20.60
2018-12-19T06:54:23.510Z,15.90
2018-12-19T06:57:05.475Z,20.27
2018-12-19T06:59:47.367Z,18.90
2018-12-19T07:02:28.559Z,18.05
2018-12-19T07:05:10.439Z,17.23
2018-12-19T07:07:51.762Z,17.17
2018-12-19T07:10:38.947Z,21.25
2018-12-19T07:13:18.458Z,15.70
2018-12-19T07:15:59.737Z,19.42
2018-12-19T07:18:41.429Z,19.65
2018-12-19T07:21:22.594Z,19.70
2018-12-19T07:24:05.351Z,20.97
2018-12-19T07:26:46.762Z,20.70
2018-12-19T07:29:28.074Z,20.55
2018-12-19T07:32:09.864Z,18.70
2018-12-19T07:34:51.220Z,20.20
2018-12-19T07:37:34.170Z,20.88
2018-12-19T07:40:15.421Z,20.27
2018-12-19T07:42:56.735Z,21.33
2018-12-19T07:45:37.913Z,20.68
2018-12-19T07:48:19.977Z,21.90
2018-12-19T07:51:01.765Z,21.23
2018-12-19T07:53:43.576Z,18.30
2018-12-19T07:56:25.536Z,17.57
2018-12-19T07:59:07.552Z,19.05
2018-12-19T08:01:49.187Z,20.25
2018-12-19T08:04:32.797Z,17.98
2018-12-19T08:07:14.082Z,18.62
2018-12-19T08:10:02.048Z,19.00
2018-12-19T08:12:43.991Z,18.30
2018-12-19T08:15:26.184Z,19.30
2018-12-19T08:18:07.714Z,18.20
2018-12-19T08:20:49.363Z,18.40
2018-12-19T08:23:31.299Z,17.15
2018-12-19T08:26:12.887Z,19.70
2018-12-19T08:28:54.578Z,20.88
2018-12-19T08:31:36.313Z,18.82
2018-12-19T08:34:18.032Z,18.70
2018-12-19T08:37:00.163Z,18.73
2018-12-19T08:39:42.594Z,19.32
2018-12-19T08:42:25.283Z,22.15
2018-12-19T08:45:08.781Z,20.92
2018-12-19T08:47:50.780Z,22.13
2018-12-19T08:50:33.698Z,17.75
2018-12-19T08:53:15.323Z,21.42
2018-12-19T08:55:56.693Z,17.92
2018-12-19T08:58:38.883Z,17.52
2018-12-19T09:01:47.418Z,20.52
2018-12-19T09:04:33.760Z,17.80
2018-12-19T09:07:22.238Z,20.75
2018-12-19T09:10:15.348Z,20.75
2018-12-19T09:12:57.527Z,19.55
2018-12-19T09:15:44.338Z,20.43
2018-12-19T09:18:26.116Z,18.95
2018-12-19T09:21:07.320Z,19.00
2018-12-19T09:23:49.674Z,18.98
2018-12-19T09:26:33.283Z,21.48
2018-12-19T09:29:14.755Z,21.27
2018-12-19T09:31:57.759Z,19.70
2018-12-19T09:34:40.199Z,18.12
2018-12-19T09:37:22.500Z,20.12
2018-12-19T09:40:05.280Z,20.68
2018-12-19T09:42:47.978Z,19.80
2018-12-19T09:45:30.017Z,17.67
2018-12-19T09:48:11.944Z,18.17
2018-12-19T09:50:53.776Z,22.35
2018-12-19T09:53:36.209Z,20.00
2018-12-19T09:56:17.726Z,19.57
2018-12-19T09:58:59.142Z,23.62
2018-12-19T10:01:41.456Z,21.20
2018-12-19T10:04:23.361Z,19.73
2018-12-19T10:07:05.249Z,21.33
2018-12-19T10:09:46.840Z,21.60
2018-12-19T10:12:27.975Z,19.00
2018-12-19T10:15:11.052Z,20.37
2018-12-19T10:17:52.859Z,20.48
2018-12-19T10:20:34.603Z,21.45
2018-12-19T10:23:16.735Z,20.68
2018-12-19T10:26:04.254Z,22.60
2018-12-19T10:28:46.567Z,19.27
2018-12-19T10:31:29.239Z,22.98
2018-12-19T10:34:10.464Z,23.32
2018-12-19T10:36:52.259Z,20.95
2018-12-19T10:39:34.367Z,25.72
2018-12-19T10:42:16.515Z,25.45
2018-12-19T10:44:59.651Z,23.12
2018-12-19T10:47:42.085Z,22.65
2018-12-19T10:50:24.113Z,24.70
2018-12-19T10:53:06.596Z,23.30
2018-12-19T10:55:49.213Z,26.57
2018-12-19T10:58:31.464Z,23.18
2018-12-19T11:01:13.367Z,22.80
2018-12-19T11:03:56.815Z,23.87
2018-12-19T11:06:38.787Z,24.80
2018-12-19T11:09:21.221Z,24.18
2018-12-19T11:12:03.142Z,23.85
2018-12-19T11:14:45.008Z,22.77
2018-12-19T11:17:26.966Z,25.23
2018-12-19T11:20:10.982Z,25.08
2018-12-19T11:22:53.612Z,23.45
2018-12-19T11:25:35.387Z,28.10
2018-12-19T11:31:07.204Z,25.72
2018-12-19T11:33:49.496Z,25.40
2018-12-19T11:36:31.871Z,24.92
2018-12-19T11:39:14.165Z,29.70
2018-12-19T11:41:56.553Z,26.10
2018-12-19T11:44:38.838Z,23.10
2018-12-19T11:47:20.772Z,26.68
2018-12-19T11:50:04.728Z,27.75
2018-12-19T11:52:46.586Z,23.40
2018-12-19T11:55:28.163Z,24.92
2018-12-19T11:58:10.624Z,25.62
2018-12-19T12:00:54.089Z,26.77
2018-12-19T12:03:36.590Z,25.97
2018-12-19T12:06:19.846Z,25.27
2018-12-19T12:09:01.324Z,28.85
2018-12-19T12:11:45.755Z,27.80
2018-12-19T12:14:27.824Z,28.00
2018-12-19T12:17:09.905Z,27.70
2018-12-19T12:19:52.229Z,26.40
2018-12-19T12:22:34.128Z,29.55
2018-12-19T12:25:15.987Z,25.80
2018-12-19T12:27:58.263Z,27.48
2018-12-19T12:30:41.017Z,29.18
2018-12-19T12:33:24.111Z,30.08
2018-12-19T12:36:07.289Z,27.85
2018-12-19T12:41:34.521Z,26.68
2018-12-19T12:44:16.682Z,25.15
2018-12-19T12:46:58.622Z,27.52
2018-12-19T12:49:40.643Z,26.27
2018-12-19T12:52:22.731Z,22.42
2018-12-19T12:55:06.047Z,27.30
2018-12-19T12:57:47.943Z,26.60
2018-12-19T13:00:30.371Z,25.43
2018-12-19T13:03:12.588Z,26.90
2018-12-19T13:05:54.421Z,25.82
2018-12-19T13:08:36.593Z,27.98
2018-12-19T13:11:19.346Z,24.67
2018-12-19T13:14:01.366Z,24.77
2018-12-19T13:16:43.978Z,27.07
2018-12-19T13:19:27.920Z,27.15
2018-12-19T13:22:10.160Z,29.55
2018-12-19T13:24:52.610Z,30.17
2018-12-19T13:27:34.829Z,26.42
2018-12-19T13:30:17.963Z,24.23
2018-12-19T13:33:00.057Z,26.55
2018-12-19T13:35:42.382Z,24.27
2018-12-19T13:38:24.189Z,26.90
2018-12-19T13:41:07.163Z,27.98
2018-12-19T13:43:49.474Z,26.70
2018-12-19T13:46:31.675Z,28.27
2018-12-19T13:49:13.949Z,26.80
2018-12-19T13:51:56.284Z,26.93
2018-12-19T13:54:38.309Z,27.85
2018-12-19T13:57:20.586Z,26.17
2018-12-19T14:00:03.646Z,33.13
2018-12-19T14:02:47.520Z,29.20
2018-12-19T14:05:29.751Z,34.98
2018-12-19T14:08:11.856Z,27.32
2018-12-19T14:10:53.851Z,29.95
2018-12-19T14:13:36.160Z,28.60
2018-12-19T14:16:18.276Z,32.65
2018-12-19T14:19:00.571Z,28.40
2018-12-19T14:21:42.723Z,30.60
2018-12-19T14:24:24.480Z,30.45
2018-12-19T14:27:06.679Z,30.92
2018-12-19T14:29:49.578Z,34.08
2018-12-19T14:32:32.135Z,28.60
2018-12-19T14:35:14.902Z,28.75
2018-12-19T14:37:57.573Z,31.65
2018-12-19T14:40:39.793Z,28.98
2018-12-19T14:43:21.338Z,30.60
2018-12-19T14:46:03.018Z,31.42
2018-12-19T14:48:45.429Z,29.85
2018-12-19T14:51:27.969Z,25.97
2018-12-19T14:54:10.669Z,25.97
2018-12-19T14:56:53.141Z,30.77
2018-12-19T14:59:34.937Z,25.80
2018-12-19T15:02:16.770Z,30.02
2018-12-19T15:04:59.067Z,30.30
2018-12-19T15:07:40.664Z,28.98
2018-12-19T15:10:23.145Z,32.93
2018-12-19T15:13:04.298Z,36.35
2018-12-19T15:15:50.207Z,31.52
2018-12-19T15:18:32.305Z,29.80
2018-12-19T15:21:14.981Z,32.75
2018-12-19T15:23:57.625Z,32.70
2018-12-19T15:26:39.591Z,29.02
2018-12-19T15:29:23.284Z,32.53
2018-12-19T15:32:04.831Z,33.58
2018-12-19T15:34:48.164Z,32.03
2018-12-19T15:37:30.056Z,33.05
2018-12-19T15:40:12.318Z,30.20
2018-12-19T15:42:53.968Z,29.25
2018-12-19T15:45:35.564Z,33.08
2018-12-19T15:48:17.044Z,31.82
2018-12-19T15:50:58.361Z,34.10
2018-12-19T15:53:40.206Z,30.43
2018-12-19T15:56:21.886Z,35.08
2018-12-19T15:59:04.219Z,31.87
2018-12-19T16:01:46.164Z,31.80
2018-12-19T16:04:27.855Z,37.65
2018-12-19T16:07:09.270Z,34.98
2018-12-19T16:09:51.398Z,31.00
2018-12-19T16:12:39.240Z,36.85
2018-12-19T16:15:18.152Z,28.80
2018-12-19T16:17:59.491Z,31.42
2018-12-19T16:20:41.339Z,34.38
2018-12-19T16:23:23.155Z,30.35
2018-12-19T16:26:04.674Z,30.95
2018-12-19T16:28:45.995Z,35.03
2018-12-19T16:31:27.801Z,32.98
2018-12-19T16:34:09.665Z,34.27
2018-12-19T16:36:51.381Z,36.38
2018-12-19T16:39:32.991Z,35.08
2018-12-19T16:42:14.812Z,33.23
2018-12-19T16:44:59.788Z,35.20
2018-12-19T16:47:42.088Z,32.00
2018-12-19T16:50:23.755Z,35.80
2018-12-19T16:53:05.981Z,37.98
2018-12-19T16:55:48.184Z,37.10
2018-12-19T16:58:30.650Z,35.85
2018-12-19T17:01:12.157Z,37.03
2018-12-19T17:03:53.811Z,33.45
2018-12-19T17:06:36.175Z,37.48
2018-12-19T17:09:17.567Z,36.42
2018-12-19T17:11:58.898Z,37.40
2018-12-19T17:14:40.911Z,36.20
2018-12-19T17:17:22.606Z,39.53
2018-12-19T17:20:05.638Z,37.35
2018-12-19T17:22:47.413Z,37.95
2018-12-19T17:25:29.588Z,38.65
2018-12-19T17:28:11.266Z,41.70
2018-12-19T17:30:53.816Z,37.35
2018-12-19T17:33:35.844Z,37.95
2018-12-19T17:36:17.398Z,34.20
2018-12-19T17:38:58.611Z,39.53
2018-12-19T17:41:40.678Z,39.95
2018-12-19T17:44:23.039Z,40.30
2018-12-19T17:47:04.702Z,41.05
2018-12-19T17:49:46.467Z,43.17
2018-12-19T17:52:31.414Z,38.23
2018-12-19T17:55:13.166Z,43.40
2018-12-19T17:57:54.579Z,40.85
2018-12-19T18:00:36.993Z,41.25
2018-12-19T18:03:18.779Z,44.58
2018-12-19T18:06:01.135Z,46.20
2018-12-19T18:08:42.578Z,42.67
2018-12-19T18:11:25.472Z,45.00
2018-12-19T18:14:08.260Z,44.50
2018-12-19T18:16:50.017Z,37.90
2018-12-19T18:19:32.660Z,49.70
2018-12-19T18:22:15.842Z,41.95
2018-12-19T18:24:57.544Z,42.70
2018-12-19T18:27:39.536Z,42.15
2018-12-19T18:30:21.155Z,43.85
2018-12-19T18:33:03.105Z,46.18
2018-12-19T18:35:44.260Z,44.70
2018-12-19T18:38:25.547Z,49.77
2018-12-19T18:41:07.891Z,48.08
2018-12-19T18:43:49.718Z,45.78
2018-12-19T18:46:32.463Z,50.08
2018-12-19T18:49:13.836Z,56.75
2018-12-19T18:51:56.096Z,48.40
2018-12-19T18:54:37.853Z,48.52
2018-12-19T18:57:19.930Z,52.27
2018-12-19T19:00:01.609Z,50.25
2018-12-19T19:02:44.801Z,50.50
2018-12-19T19:05:27.382Z,52.30
2018-12-19T19:08:09.142Z,48.87
2018-12-19T19:10:50.733Z,52.62
2018-12-19T19:13:31.946Z,51.20
2018-12-19T19:16:13.238Z,51.83
2018-12-19T19:18:55.193Z,48.65
2018-12-19T19:21:37.229Z,50.65
2018-12-19T19:24:19.109Z,53.30
2018-12-19T19:27:00.608Z,50.60
2018-12-19T19:29:42.363Z,48.63
2018-12-19T19:32:24.275Z,51.70
2018-12-19T19:35:06.709Z,50.33
2018-12-19T19:37:48.635Z,49.63
2018-12-19T19:40:31.066Z,54.18
2018-12-19T19:43:13.652Z,54.50
2018-12-19T19:45:55.251Z,52.23
2018-12-19T19:48:37.190Z,57.15
2018-12-19T19:51:19.082Z,55.28
2018-12-19T19:54:01.101Z,51.55
2018-12-19T19:56:42.996Z,55.33
2018-12-19T19:59:25.262Z,58.58
2018-12-19T20:02:11.768Z,57.78
2018-12-19T20:04:53.493Z,53.98
2018-12-19T20:07:35.557Z,60.20
2018-12-19T20:10:17.244Z,54.75
2018-12-19T20:12:58.555Z,57.00
2018-12-19T20:15:39.946Z,51.10
2018-12-19T20:18:22.123Z,59.23
2018-12-19T20:21:05.036Z,56.35
2018-12-19T20:23:46.314Z,54.23
2018-12-19T20:26:27.523Z,59.38
2018-12-19T20:29:08.916Z,59.23
2018-12-19T20:31:50.323Z,61.85
2018-12-19T20:34:32.716Z,59.83
2018-12-19T20:37:14.140Z,62.23
2018-12-19T20:39:56.132Z,59.80
2018-12-19T20:42:37.706Z,60.28
2018-12-19T20:45:19.719Z,58.38
2018-12-19T20:48:01.921Z,57.75
2018-12-19T20:50:50.457Z,59.67
2018-12-19T20:53:32.125Z,58.28
2018-12-19T20:56:13.491Z,57.83
2018-12-19T20:58:55.885Z,59.35
2018-12-19T21:01:38.103Z,55.35
2018-12-19T21:04:19.819Z,59.85
2018-12-19T21:09:47.273Z,56.75
2018-12-19T21:12:28.882Z,55.40
2018-12-19T21:15:10.977Z,55.83
2018-12-19T21:17:58.031Z,53.80
2018-12-19T21:20:40.251Z,62.33
2018-12-19T21:23:22.471Z,54.53
2018-12-19T21:26:04.099Z,54.38
2018-12-19T21:28:46.347Z,56.98
2018-12-19T21:31:27.773Z,58.15
2018-12-19T21:34:10.298Z,62.90
2018-12-19T21:36:52.737Z,52.43
2018-12-19T21:39:34.048Z,54.05
2018-12-19T21:42:16.521Z,55.45
2018-12-19T21:44:58.458Z,53.83
2018-12-19T21:47:40.351Z,52.15
2018-12-19T21:50:22.848Z,53.55
2018-12-19T21:53:05.370Z,54.67
2018-12-19T21:55:48.289Z,55.90
2018-12-19T21:58:30.761Z,55.33
2018-12-19T22:01:12.616Z,50.80
2018-12-19T22:03:54.518Z,53.40
2018-12-19T22:06:37.196Z,53.80
2018-12-19T22:09:18.959Z,58.40
2018-12-19T22:12:01.363Z,56.55
2018-12-19T22:14:42.882Z,54.05
2018-12-19T22:17:29.761Z,59.45
2018-12-19T22:20:11.732Z,52.90
2018-12-19T22:22:54.058Z,52.53
2018-12-19T22:25:35.490Z,52.10
2018-12-19T22:28:17.000Z,52.78
2018-12-19T22:30:59.760Z,52.20
2018-12-19T22:33:41.167Z,50.73
2018-12-19T22:36:23.338Z,49.27
2018-12-19T22:39:13.813Z,45.70
2018-12-19T22:41:55.249Z,49.85
2018-12-19T22:44:36.716Z,46.95
2018-12-19T22:47:18.417Z,44.65
2018-12-19T22:50:00.010Z,47.78
2018-12-19T22:52:42.005Z,52.40
2018-12-19T22:55:23.797Z,57.43
2018-12-19T22:58:05.743Z,48.92
2018-12-19T23:00:55.619Z,52.70
2018-12-19T23:03:44.002Z,55.63
2018-12-19T23:06:26.803Z,53.23
2018-12-19T23:09:08.981Z,52.38
2018-12-19T23:11:50.878Z,58.95
2018-12-19T23:14:33.285Z,55.63
2018-12-19T23:17:25.103Z,51.48
2018-12-19T23:20:12.376Z,55.33
2018-12-19T23:22:59.566Z,54.15
2018-12-19T23:25:46.920Z,55.25
2018-12-19T23:28:30.141Z,54.67
2018-12-19T23:31:13.071Z,51.42
2018-12-19T23:33:55.174Z,50.75
2018-12-19T23:36:36.708Z,52.65
2018-12-19T23:39:18.938Z,59.85
2018-12-19T23:42:01.256Z,55.65
2018-12-19T23:44:43.129Z,58.80
2018-12-19T23:47:24.322Z,57.33
2018-12-19T23:50:06.853Z,62.00
2018-12-19T23:52:48.476Z,55.80
2018-12-19T23:55:29.999Z,52.10
2018-12-19T23:58:11.386Z,56.80
